Terminal Aerodrome Forecast
Issued by NWS

Home | Current Version | Previous Version | Text Only | Print | Product List | Glossary On
Versions: 1 2 3 4 5 6 7 8 9 10 11 12
936
FTUS44 KOUN 221133
TAFWWR
TAF
KWWR 221133Z 2212/2312 12014KT 5SM BR BKN003
     FM221600 14014KT P6SM OVC007
     FM231000 16012KT P6SM VCTS OVC007CB=

USA.gov is the U.S. government's official web portal to all federal, state and local government web resources and services.